Huvudsida
METAR-TAF:

METAR-TAF

Flygplatser :

Khartoum, Sudan

latitud: 15-36N, longitud: 032-33E, höjd: 382 m

Aktuellt väderrapport

Vind 7 kt från syd/sydväst
Temperatur 26°C
Fuktighet 79%
Tryck 1010 hPa
Sikt 10 km eller mer
Inga moln under 1 500 m eller inga cumulonimbus

METAR: HSSS 0130Z 20007KT CAVOK 26/22 Q1010 NOSIG

Tid: 04:52 (01:52 UTC)

Väderprognos

Denna rapport gjordes för 2 timmar och 52 minuter sedan, klockan 23:00 UTC
Prognos gäller från 19 kl. 00 UTC till 20 kl. 06 UTC
Vind 10 kt från syd/sydväst i byarna ända upp till 20 kt
Sikt 10 km eller mer
Få moln på en höjd av 4000 ft
Spridda moln på en höjd av 14000 ft
Temporärt
från 19 kl. 03 UTC till 19 kl. 06 UTC
Sikt: 8000 m
Brutna moln på en höjd av 14000 ft
lätt regn

TAF: HSSS 182300Z 1900/2006 21010G20KT 9999 FEW040 SCT140 TEMPO 1903/1906 8000 -RA BKN140

Aktuella väderrapporter och prognoser från 4000 flygplatser (METAR- och TAF-rapporter).

De tillgängliga stationerna syns som gula och röda prickar på kartan.

För musen över prickarna för att se namnen på stationerna.

Klicka sedan för att få väderrapporter och prognoser.

För att ändra kartan: Klicka på de gröna knapparna med ett svart kors på för att zooma in; den gröna knappen med ett streck på för att zooma ut; eller på de gröna pilarna för angränsande kartor.


METAR-TAF: